createdAt,value
2018-09-29T00:01:13.725Z,56.92
2018-09-29T00:05:17.595Z,57.32
2018-09-29T00:09:21.427Z,57.17
2018-09-29T00:13:25.358Z,57.11
2018-09-29T00:17:29.228Z,57.10
2018-09-29T00:21:33.304Z,57.73
2018-09-29T00:25:37.327Z,57.31
2018-09-29T00:29:41.185Z,56.89
2018-09-29T00:33:45.014Z,56.74
2018-09-29T00:37:48.858Z,56.08
2018-09-29T00:41:52.431Z,56.16
2018-09-29T00:45:55.962Z,58.24
2018-09-29T00:49:59.543Z,56.38
2018-09-29T00:54:03.166Z,57.22
2018-09-29T00:58:06.767Z,56.67
2018-09-29T01:02:10.295Z,57.18
2018-09-29T01:06:13.943Z,56.97
2018-09-29T01:10:17.513Z,56.40
2018-09-29T01:14:21.301Z,56.73
2018-09-29T01:18:24.813Z,57.20
2018-09-29T01:22:28.554Z,57.06
2018-09-29T01:26:32.084Z,56.79
2018-09-29T01:30:35.575Z,57.08
2018-09-29T01:34:39.098Z,56.06
2018-09-29T01:38:42.606Z,57.25
2018-09-29T01:42:46.235Z,56.56
2018-09-29T01:46:49.845Z,56.50
2018-09-29T01:50:53.316Z,56.28
2018-09-29T01:54:56.820Z,56.47
2018-09-29T01:59:00.390Z,56.49
2018-09-29T02:03:09.257Z,58.05
2018-09-29T02:07:12.751Z,57.24
2018-09-29T02:11:16.356Z,57.73
2018-09-29T02:15:19.955Z,57.42
2018-09-29T02:19:23.423Z,56.88
2018-09-29T02:23:26.966Z,57.98
2018-09-29T02:27:30.534Z,57.41
2018-09-29T02:31:34.082Z,58.36
2018-09-29T02:35:37.666Z,58.00
2018-09-29T02:39:41.208Z,59.04
2018-09-29T02:43:44.780Z,58.45
2018-09-29T02:47:48.396Z,57.36
2018-09-29T02:51:51.999Z,57.35
2018-09-29T02:55:55.472Z,58.11
2018-09-29T02:59:59.175Z,57.58
2018-09-29T03:04:02.894Z,56.87
2018-09-29T03:08:06.495Z,57.60
2018-09-29T03:12:10.115Z,57.60
2018-09-29T03:16:13.808Z,56.84
2018-09-29T03:20:17.339Z,57.21
2018-09-29T03:24:20.889Z,57.69
2018-09-29T03:28:24.357Z,57.47
2018-09-29T03:32:27.871Z,57.57
2018-09-29T03:36:31.410Z,57.78
2018-09-29T03:40:34.959Z,57.44
2018-09-29T03:44:38.496Z,57.83
2018-09-29T03:48:42.026Z,58.26
2018-09-29T03:52:45.604Z,57.90
2018-09-29T03:56:49.119Z,58.25
2018-09-29T04:00:52.695Z,57.38
2018-09-29T04:04:56.263Z,58.03
2018-09-29T04:09:00.021Z,57.56
2018-09-29T04:13:03.632Z,57.95
2018-09-29T04:17:07.215Z,57.84
2018-09-29T04:21:10.781Z,58.12
2018-09-29T04:25:14.358Z,58.02
2018-09-29T04:29:18.122Z,57.96
2018-09-29T04:33:21.637Z,58.36
2018-09-29T04:37:25.210Z,58.90
2018-09-29T04:41:28.753Z,58.98
2018-09-29T04:45:32.465Z,58.39
2018-09-29T04:49:36.125Z,58.30
2018-09-29T04:53:39.658Z,58.09
2018-09-29T04:57:43.294Z,58.97
2018-09-29T05:01:46.803Z,59.17
2018-09-29T05:05:50.314Z,59.00
2018-09-29T05:09:53.978Z,58.88
2018-09-29T05:13:57.596Z,58.69
2018-09-29T05:18:01.345Z,58.42
2018-09-29T05:22:05.478Z,58.47
2018-09-29T05:26:08.986Z,58.46
2018-09-29T05:30:13.263Z,58.06
2018-09-29T05:34:16.852Z,58.81
2018-09-29T05:38:20.541Z,58.56
2018-09-29T05:42:24.447Z,58.11
2018-09-29T05:46:28.078Z,57.55
2018-09-29T05:50:32.608Z,57.86
2018-09-29T05:54:36.102Z,58.28
2018-09-29T05:58:39.817Z,57.92
2018-09-29T06:02:43.865Z,57.88
2018-09-29T06:06:47.505Z,57.72
2018-09-29T06:10:51.156Z,57.26
2018-09-29T06:14:54.810Z,57.55
2018-09-29T06:18:58.374Z,57.06
2018-09-29T06:23:01.856Z,58.20
2018-09-29T06:27:05.403Z,57.97
2018-09-29T06:31:09.384Z,56.90
2018-09-29T06:35:13.053Z,57.18
2018-09-29T06:39:16.648Z,57.30
2018-09-29T06:43:20.173Z,56.81
2018-09-29T06:47:23.681Z,57.08
2018-09-29T06:51:27.258Z,56.47
2018-09-29T06:55:30.941Z,56.54
2018-09-29T06:59:34.553Z,56.29
2018-09-29T07:03:38.379Z,56.11
2018-09-29T07:07:42.038Z,56.74
2018-09-29T07:11:45.682Z,55.46
2018-09-29T07:15:49.325Z,55.19
2018-09-29T07:19:52.920Z,54.51
2018-09-29T07:23:56.518Z,54.78
2018-09-29T07:28:01.234Z,53.87
2018-09-29T07:32:05.273Z,53.25
2018-09-29T07:36:08.896Z,53.26
2018-09-29T07:40:12.466Z,52.50
2018-09-29T07:44:16.025Z,52.78
2018-09-29T07:48:19.611Z,51.73
2018-09-29T07:52:23.291Z,50.93
2018-09-29T07:56:26.813Z,50.25
2018-09-29T08:00:30.371Z,49.81
2018-09-29T08:04:33.884Z,50.55
2018-09-29T08:08:37.500Z,50.25
2018-09-29T08:12:41.034Z,49.37
2018-09-29T08:16:44.556Z,48.97
2018-09-29T08:20:48.167Z,48.76
2018-09-29T08:24:51.712Z,47.74
2018-09-29T08:28:55.198Z,47.66
2018-09-29T08:32:58.753Z,47.29
2018-09-29T08:37:02.333Z,47.12
2018-09-29T08:41:05.903Z,47.35
2018-09-29T08:45:09.513Z,46.32
2018-09-29T08:49:12.973Z,46.24
2018-09-29T08:53:16.569Z,44.68
2018-09-29T08:57:21.110Z,45.38
2018-09-29T09:01:24.626Z,44.71
2018-09-29T09:05:28.150Z,45.06
2018-09-29T09:09:31.958Z,44.19
2018-09-29T09:13:35.631Z,42.81
2018-09-29T09:17:39.145Z,44.27
2018-09-29T09:21:42.701Z,45.54
2018-09-29T09:25:46.256Z,44.22
2018-09-29T09:29:49.865Z,42.19
2018-09-29T09:33:53.348Z,43.05
2018-09-29T09:37:56.998Z,41.03
2018-09-29T09:42:00.742Z,43.31
2018-09-29T09:46:04.304Z,42.46
2018-09-29T09:50:07.914Z,42.47
2018-09-29T09:54:11.458Z,42.44
2018-09-29T09:58:14.988Z,43.00
2018-09-29T10:02:23.793Z,42.31
2018-09-29T10:06:27.603Z,42.30
2018-09-29T10:10:31.323Z,41.91
2018-09-29T10:14:35.041Z,42.48
2018-09-29T10:18:38.648Z,43.30
2018-09-29T10:22:42.199Z,41.69
2018-09-29T10:26:45.733Z,42.69
2018-09-29T10:30:49.359Z,42.32
2018-09-29T10:34:53.040Z,42.37
2018-09-29T10:38:56.537Z,42.26
2018-09-29T10:43:00.053Z,41.85
2018-09-29T10:47:03.823Z,41.76
2018-09-29T10:51:07.461Z,41.80
2018-09-29T10:55:11.021Z,41.09
2018-09-29T10:59:14.590Z,39.52
2018-09-29T11:03:18.174Z,40.36
2018-09-29T11:07:21.883Z,39.45
2018-09-29T11:11:25.445Z,39.12
2018-09-29T11:15:28.955Z,40.30
2018-09-29T11:19:33.080Z,40.27
2018-09-29T11:23:36.594Z,37.45
2018-09-29T11:27:40.148Z,38.65
2018-09-29T11:31:43.683Z,38.13
2018-09-29T11:35:47.323Z,38.13
2018-09-29T11:39:50.872Z,37.27
2018-09-29T11:43:54.370Z,38.50
2018-09-29T11:47:57.911Z,37.84
2018-09-29T11:52:01.415Z,37.68
2018-09-29T11:56:04.909Z,37.51
2018-09-29T12:00:08.434Z,36.41
2018-09-29T12:04:12.066Z,38.35
2018-09-29T12:08:15.587Z,38.93
2018-09-29T12:12:19.221Z,40.24
2018-09-29T12:16:22.871Z,38.45
2018-09-29T12:20:26.443Z,39.54
2018-09-29T12:24:31.019Z,39.02
2018-09-29T12:28:34.678Z,38.90
2018-09-29T12:32:38.230Z,39.75
2018-09-29T12:36:41.998Z,38.45
2018-09-29T12:40:45.536Z,36.90
2018-09-29T12:44:49.147Z,37.89
2018-09-29T12:48:52.542Z,38.32
2018-09-29T12:52:56.101Z,39.36
2018-09-29T12:56:59.671Z,37.25
2018-09-29T13:01:04.673Z,38.31
2018-09-29T13:05:08.510Z,38.52
2018-09-29T13:09:12.010Z,38.00
2018-09-29T13:13:16.807Z,37.72
2018-09-29T13:17:22.468Z,38.16
2018-09-29T13:21:26.095Z,39.42
2018-09-29T13:25:29.649Z,39.29
2018-09-29T13:29:33.191Z,39.40
2018-09-29T13:33:36.701Z,40.28
2018-09-29T13:37:40.221Z,40.46
2018-09-29T13:41:43.916Z,39.70
2018-09-29T13:45:47.478Z,39.65
2018-09-29T13:49:51.029Z,40.09
2018-09-29T13:53:54.578Z,39.83
2018-09-29T13:57:58.050Z,40.46
2018-09-29T14:02:03.946Z,40.32
2018-09-29T14:06:07.437Z,40.55
2018-09-29T14:10:10.958Z,39.67
2018-09-29T14:14:14.733Z,40.57
2018-09-29T14:18:18.213Z,39.81
2018-09-29T14:22:21.813Z,39.83
2018-09-29T14:26:25.393Z,39.79
2018-09-29T14:30:29.587Z,41.84
2018-09-29T14:34:33.136Z,40.64
2018-09-29T14:38:37.009Z,40.14
2018-09-29T14:42:40.455Z,39.30
2018-09-29T14:46:44.028Z,39.79
2018-09-29T14:50:47.826Z,39.56
2018-09-29T14:55:06.883Z,40.20
2018-09-29T14:59:10.662Z,39.56
2018-09-29T15:03:14.256Z,40.19
2018-09-29T15:07:18.020Z,39.51
2018-09-29T15:25:08.823Z,40.11
2018-09-29T15:29:13.201Z,40.60
2018-09-29T15:33:16.932Z,40.68
2018-09-29T15:37:20.656Z,40.05
2018-09-29T15:41:25.111Z,40.22
2018-09-29T15:45:28.816Z,40.67
2018-09-29T15:49:32.569Z,39.80
2018-09-29T15:53:42.701Z,40.32
2018-09-29T15:57:46.339Z,40.84
2018-09-29T16:01:50.036Z,40.04
2018-09-29T16:05:54.508Z,40.35
2018-09-29T16:09:58.150Z,40.60
2018-09-29T16:14:02.791Z,40.71
2018-09-29T16:18:06.357Z,40.88
2018-09-29T16:22:09.944Z,41.38
2018-09-29T16:26:14.172Z,41.38
2018-09-29T16:30:17.790Z,41.58
2018-09-29T16:34:22.342Z,41.87
2018-09-29T16:38:27.144Z,41.42
2018-09-29T16:42:31.133Z,41.03
2018-09-29T16:46:34.813Z,41.61
2018-09-29T16:59:31.145Z,41.93
2018-09-29T17:08:12.632Z,42.60
2018-09-29T17:12:16.666Z,43.44
2018-09-29T17:16:20.243Z,43.80
2018-09-29T17:20:44.069Z,43.75
2018-09-29T17:24:47.593Z,44.37
2018-09-29T17:28:52.006Z,44.37
2018-09-29T17:32:55.748Z,44.95
2018-09-29T17:36:59.256Z,44.79
2018-09-29T17:41:02.857Z,45.75
2018-09-29T17:45:06.512Z,45.13
2018-09-29T17:49:10.062Z,45.54
2018-09-29T17:53:13.560Z,45.94
2018-09-29T17:57:17.258Z,45.51
2018-09-29T18:01:21.699Z,46.19
2018-09-29T18:05:25.322Z,45.71
2018-09-29T18:09:28.809Z,46.37
2018-09-29T18:13:32.534Z,46.36
2018-09-29T18:17:38.087Z,46.02
2018-09-29T18:21:42.228Z,46.57
2018-09-29T18:25:46.392Z,46.37
2018-09-29T18:29:50.563Z,46.88
2018-09-29T19:06:23.269Z,48.85
2018-09-29T19:10:27.229Z,48.73
2018-09-29T19:14:30.868Z,49.18
2018-09-29T19:18:34.360Z,49.54
2018-09-29T19:22:37.902Z,49.51
2018-09-29T19:26:41.535Z,49.34
2018-09-29T19:30:45.419Z,49.34
2018-09-29T19:34:49.061Z,49.53
2018-09-29T19:38:52.569Z,49.90
2018-09-29T19:42:56.022Z,49.67
2018-09-29T19:46:59.502Z,50.39
2018-09-29T19:51:03.038Z,50.01
2018-09-29T19:55:06.881Z,50.39
2018-09-29T19:59:10.374Z,50.60
2018-09-29T20:03:14.192Z,51.61
2018-09-29T20:07:17.683Z,51.33
2018-09-29T20:11:21.210Z,51.34
2018-09-29T20:15:24.927Z,51.11
2018-09-29T20:19:28.458Z,51.84
2018-09-29T20:23:31.988Z,52.15
2018-09-29T20:27:35.550Z,52.44
2018-09-29T20:31:39.966Z,52.40
2018-09-29T20:35:43.467Z,51.93
2018-09-29T20:39:47.005Z,52.08
2018-09-29T20:43:50.810Z,52.45
2018-09-29T20:47:54.345Z,52.16
2018-09-29T20:51:57.834Z,52.19
2018-09-29T20:56:01.322Z,52.33
2018-09-29T21:00:05.978Z,52.09
2018-09-29T21:04:09.422Z,52.24
2018-09-29T21:08:13.204Z,53.05
2018-09-29T21:12:16.685Z,52.71
2018-09-29T21:16:20.144Z,52.62
2018-09-29T21:20:23.995Z,52.94
2018-09-29T21:24:27.474Z,52.59
2018-09-29T21:28:31.268Z,52.45
2018-09-29T21:32:34.717Z,52.47
2018-09-29T21:36:38.306Z,53.19
2018-09-29T21:40:41.695Z,52.78
2018-09-29T21:44:45.164Z,53.11
2018-09-29T21:48:48.597Z,53.71
2018-09-29T21:52:52.111Z,53.57
2018-09-29T21:56:55.537Z,53.67
2018-09-29T22:01:04.418Z,54.37
2018-09-29T22:05:08.839Z,54.33
2018-09-29T22:09:16.562Z,54.92
2018-09-29T22:13:20.032Z,54.79
2018-09-29T22:17:23.702Z,55.37
2018-09-29T22:21:27.203Z,55.20
2018-09-29T22:25:30.696Z,55.41
2018-09-29T22:29:34.273Z,54.92
2018-09-29T22:33:37.853Z,55.85
2018-09-29T22:37:41.552Z,54.93
2018-09-29T22:41:45.470Z,55.53
2018-09-29T22:45:49.306Z,55.57
2018-09-29T22:49:52.731Z,55.46
2018-09-29T22:53:56.201Z,55.65
2018-09-29T22:57:59.677Z,56.03
2018-09-29T23:02:03.253Z,55.90
2018-09-29T23:06:06.869Z,56.32
2018-09-29T23:10:10.537Z,56.36
2018-09-29T23:14:14.307Z,56.49
2018-09-29T23:18:18.116Z,56.63
2018-09-29T23:22:21.616Z,56.20
2018-09-29T23:26:25.061Z,56.18
2018-09-29T23:30:28.526Z,55.98
2018-09-29T23:34:31.993Z,56.45
2018-09-29T23:38:35.449Z,56.56
2018-09-29T23:42:39.001Z,56.74
2018-09-29T23:46:42.630Z,56.46
2018-09-29T23:50:46.122Z,57.12
2018-09-29T23:54:49.646Z,57.61
2018-09-29T23:58:53.213Z,56.92
